East Vestal, New York
Current Conditions -  °F | °C
As of 6:08 AM on Friday 24 Oct 2014 (Local Time) from KBGM Reporting Station
Overcast Overcast  
Wind Chill:   Ceiling: 6500
Heat Index:   Visibility: 10mi
Dew Point:   Wind: 15mph
Humidity: 82%   Direction: 340°NNW
Pressure: 29.9"   Gusts: NA
Location:  42.0523°N, 75.9029°W
Report Text: KBGM 241008Z 34013KT 10SM SCT015 OVC065 07/04 A2990 RMK AO2 T00720044
Loading
Personal Weather Stations






























Interactive Weather Map
Tropical Storm Tracking
New forecast layout! Learn more

10-Day Weather Forecast

Advertisements
Track Severe Weather on mobile